Time;durP1;ratioP1;P1;durP2;ratioP2;P2;SDS_P1;SDS_P2;PMS_P1;PMS_P2;Temp;Humidity;BMP_temperature;BMP_pressure;BME280_temperature;BME280_humidity;BME280_pressure;Samples;Min_cycle;Max_cycle;Signal;HPM_P1;HPM_P2
2022/03/17 00:00:46;;;;;;;220.90;76.60;;;;;;;;;;6271885;28;20398;-64
2022/03/17 00:03:47;;;;;;;231.32;84.45;;;;;;;;;;6271773;28;20053;-65
2022/03/17 00:06:48;;;;;;;240.32;81.22;;;;;;;;;;6275136;28;20120;-65
2022/03/17 00:09:49;;;;;;;219.10;80.07;;;;;;;;;;6288361;28;20483;-65
2022/03/17 00:12:50;;;;;;;219.15;79.13;;;;;;;;;;6273275;28;20122;-64
2022/03/17 00:15:51;;;;;;;226.15;79.75;;;;;;;;;;6272632;28;20519;-65
2022/03/17 00:18:52;;;;;;;223.63;79.25;;;;;;;;;;6271300;28;20132;-66
2022/03/17 00:21:53;;;;;;;229.27;76.72;;;;;;;;;;6274240;28;20490;-65
2022/03/17 00:24:54;;;;;;;229.38;79.97;;;;;;;;;;6271288;28;20093;-64
2022/03/17 00:27:56;;;;;;;219.32;79.28;;;;;;;;;;6275415;28;20076;-65
2022/03/17 00:30:57;;;;;;;206.82;78.45;;;;;;;;;;6275421;28;20048;-66
2022/03/17 00:33:57;;;;;;;232.90;78.95;;;;;;;;;;6268415;28;20045;-65
2022/03/17 00:36:58;;;;;;;228.25;79.38;;;;;;;;;;6274603;28;20175;-65
2022/03/17 00:39:59;;;;;;;222.43;77.38;;;;;;;;;;6272323;28;20068;-66
2022/03/17 00:43:00;;;;;;;216.27;78.93;;;;;;;;;;6277448;28;20115;-65
2022/03/17 00:46:01;;;;;;;221.35;78.63;;;;;;;;;;6272564;28;20077;-65
2022/03/17 00:49:03;;;;;;;218.70;75.47;;;;;;;;;;6272976;28;20055;-64
2022/03/17 00:52:09;;;;;;;215.45;72.63;;;;;;;;;;6273866;28;20047;-64
2022/03/17 00:55:10;;;;;;;217.98;73.22;;;;;;;;;;6271222;28;20086;-65
2022/03/17 00:58:11;;;;;;;225.10;77.35;;;;;;;;;;6276541;28;20558;-64
2022/03/17 01:01:13;;;;;;;217.50;77.88;;;;;;;;;;6275131;28;20735;-66
2022/03/17 01:04:14;;;;;;;230.77;84.25;;;;;;;;;;6271638;28;20055;-65
2022/03/17 01:07:14;;;;;;;241.18;88.07;;;;;;;;;;6278703;28;20131;-65
2022/03/17 01:10:17;;;;;;;227.10;83.95;;;;;;;;;;6277809;28;20124;-64
2022/03/17 01:13:17;;;;;;;245.13;88.90;;;;;;;;;;6279557;28;20114;-66
2022/03/17 01:16:18;;;;;;;244.38;87.25;;;;;;;;;;6266039;28;20041;-64
2022/03/17 01:19:19;;;;;;;242.73;85.57;;;;;;;;;;6280685;28;20492;-66
2022/03/17 01:22:23;;;;;;;241.93;84.63;;;;;;;;;;6280107;28;20043;-65
2022/03/17 01:25:24;;;;;;;237.02;78.90;;;;;;;;;;6278172;28;20315;-65
2022/03/17 01:28:24;;;;;;;256.80;86.60;;;;;;;;;;6277808;28;20068;-65
2022/03/17 01:31:25;;;;;;;263.50;90.50;;;;;;;;;;6274779;28;20131;-65
2022/03/17 01:34:26;;;;;;;271.00;97.10;;;;;;;;;;6279432;28;20044;-65
2022/03/17 01:37:27;;;;;;;258.17;95.25;;;;;;;;;;6281426;28;20123;-64
2022/03/17 01:40:28;;;;;;;260.88;92.72;;;;;;;;;;6275748;28;20053;-64
2022/03/17 01:43:28;;;;;;;233.30;86.75;;;;;;;;;;6278433;28;20155;-64
2022/03/17 01:46:29;;;;;;;226.75;77.63;;;;;;;;;;6275852;28;20045;-66
2022/03/17 01:49:30;;;;;;;232.88;80.18;;;;;;;;;;6274707;28;20163;-65
2022/03/17 01:52:31;;;;;;;244.38;87.22;;;;;;;;;;6276701;28;20189;-68
2022/03/17 01:55:32;;;;;;;227.55;84.93;;;;;;;;;;6272181;28;20475;-64
2022/03/17 01:58:33;;;;;;;214.95;79.32;;;;;;;;;;6280736;28;20052;-64
2022/03/17 02:01:34;;;;;;;217.80;78.53;;;;;;;;;;6277629;28;20052;-64
2022/03/17 02:04:35;;;;;;;210.50;77.88;;;;;;;;;;6270107;28;20068;-64
2022/03/17 02:07:36;;;;;;;217.63;79.13;;;;;;;;;;6274019;28;20045;-63
2022/03/17 02:13:56;;;;;;;237.05;80.40;;;;;;;;;;6270053;28;20183;-64
2022/03/17 02:16:57;;;;;;;226.00;79.13;;;;;;;;;;6280727;28;20049;-64
2022/03/17 02:20:02;;;;;;;233.50;80.47;;;;;;;;;;6291641;28;20577;-65
2022/03/17 02:26:25;;;;;;;238.32;85.97;;;;;;;;;;6276476;28;20321;-63
2022/03/17 02:29:26;;;;;;;238.57;89.80;;;;;;;;;;6277217;28;20048;-63
2022/03/17 02:32:27;;;;;;;258.27;93.97;;;;;;;;;;6277838;28;20128;-63
2022/03/17 02:35:28;;;;;;;276.83;96.35;;;;;;;;;;6277994;28;20048;-64
2022/03/17 02:38:29;;;;;;;258.50;92.63;;;;;;;;;;6278382;28;20514;-64
2022/03/17 02:41:32;;;;;;;232.70;84.00;;;;;;;;;;6279996;28;20099;-63
2022/03/17 02:44:33;;;;;;;237.27;85.80;;;;;;;;;;6276229;28;20777;-64
2022/03/17 02:47:34;;;;;;;229.50;88.18;;;;;;;;;;6273242;28;20044;-64
2022/03/17 02:50:35;;;;;;;235.13;85.90;;;;;;;;;;6272719;28;21027;-64
2022/03/17 02:53:36;;;;;;;244.60;83.07;;;;;;;;;;6274260;28;20069;-63
2022/03/17 02:56:37;;;;;;;220.82;79.50;;;;;;;;;;6276835;28;20061;-63
2022/03/17 02:59:37;;;;;;;225.25;79.65;;;;;;;;;;6267599;28;20049;-64
2022/03/17 03:02:38;;;;;;;227.63;79.82;;;;;;;;;;6275710;28;20119;-65
2022/03/17 03:05:40;;;;;;;224.10;81.43;;;;;;;;;;6274604;28;20106;-65
2022/03/17 03:08:41;;;;;;;240.43;85.07;;;;;;;;;;6270793;28;20159;-63
2022/03/17 03:11:41;;;;;;;243.32;86.07;;;;;;;;;;6271481;28;20188;-65
2022/03/17 03:14:42;;;;;;;255.05;90.22;;;;;;;;;;6275240;28;20132;-66
2022/03/17 03:17:43;;;;;;;257.15;91.72;;;;;;;;;;6275230;28;20165;-64
2022/03/17 03:20:45;;;;;;;275.13;94.07;;;;;;;;;;6264504;28;20053;-66
2022/03/17 03:23:45;;;;;;;277.97;93.17;;;;;;;;;;6272854;28;20578;-63
2022/03/17 03:26:46;;;;;;;227.25;80.28;;;;;;;;;;6272780;28;20041;-64
2022/03/17 03:29:47;;;;;;;232.30;84.15;;;;;;;;;;6271063;28;20047;-64
2022/03/17 03:32:47;;;;;;;242.82;86.88;;;;;;;;;;6276613;28;20036;-64
2022/03/17 03:39:07;;;;;;;248.30;87.13;;;;;;;;;;6268509;28;20049;-63
2022/03/17 03:42:09;;;;;;;265.05;91.45;;;;;;;;;;6275548;28;20769;-69
2022/03/17 03:45:10;;;;;;;226.00;81.70;;;;;;;;;;6274284;28;20056;-64
2022/03/17 03:48:11;;;;;;;220.43;79.03;;;;;;;;;;6276798;28;20056;-63
2022/03/17 03:51:11;;;;;;;237.23;86.00;;;;;;;;;;6273898;28;20072;-64
2022/03/17 03:54:13;;;;;;;237.13;82.85;;;;;;;;;;6271715;28;20040;-63
2022/03/17 03:57:14;;;;;;;222.20;75.88;;;;;;;;;;6272761;28;20738;-64
2022/03/17 04:03:31;;;;;;;206.52;76.80;;;;;;;;;;6271389;28;20040;-65
2022/03/17 04:06:47;;;;;;;210.20;74.47;;;;;;;;;;6284109;28;20166;-64
2022/03/17 04:09:48;;;;;;;230.35;77.85;;;;;;;;;;6283270;28;20041;-64
2022/03/17 04:12:49;;;;;;;235.80;83.25;;;;;;;;;;6276685;28;20133;-64
2022/03/17 04:15:50;;;;;;;233.37;83.90;;;;;;;;;;6279966;28;20056;-64
2022/03/17 04:18:51;;;;;;;252.68;84.22;;;;;;;;;;6273720;28;20055;-64
2022/03/17 04:21:52;;;;;;;250.23;81.07;;;;;;;;;;6274505;28;20489;-64
2022/03/17 04:24:53;;;;;;;233.65;83.78;;;;;;;;;;6277577;28;20163;-64
2022/03/17 04:27:54;;;;;;;232.13;81.55;;;;;;;;;;6271843;28;20118;-63
2022/03/17 04:30:55;;;;;;;229.32;81.25;;;;;;;;;;6279077;28;20094;-63
2022/03/17 04:33:56;;;;;;;203.55;75.90;;;;;;;;;;6282085;28;20136;-63
2022/03/17 04:36:56;;;;;;;211.80;73.05;;;;;;;;;;6272384;28;20438;-63
2022/03/17 04:39:58;;;;;;;194.35;70.65;;;;;;;;;;6272561;28;20178;-63
2022/03/17 04:42:58;;;;;;;201.95;72.20;;;;;;;;;;6278240;28;20040;-64
2022/03/17 04:46:00;;;;;;;215.63;76.60;;;;;;;;;;6278423;28;20095;-64
2022/03/17 04:49:01;;;;;;;206.05;78.80;;;;;;;;;;6280177;28;20052;-64
2022/03/17 04:53:26;;;;;;;229.55;79.38;;;;;;;;;;6278329;28;20075;-64
2022/03/17 04:55:22;;;;;;;226.65;79.80;;;;;;;;;;6280578;28;20492;-63
2022/03/17 04:58:24;;;;;;;217.35;77.90;;;;;;;;;;6280689;28;20136;-63
2022/03/17 05:01:27;;;;;;;202.65;70.90;;;;;;;;;;6280835;28;20058;-63
2022/03/17 05:04:27;;;;;;;204.95;72.63;;;;;;;;;;6281318;28;20484;-63
2022/03/17 05:07:28;;;;;;;219.85;78.18;;;;;;;;;;6278448;28;20076;-63
2022/03/17 05:10:29;;;;;;;209.25;77.57;;;;;;;;;;6276519;28;20128;-64
2022/03/17 05:13:30;;;;;;;241.60;83.93;;;;;;;;;;6279414;28;20065;-63
2022/03/17 05:16:31;;;;;;;240.38;82.95;;;;;;;;;;6274191;28;20048;-64
2022/03/17 05:19:33;;;;;;;227.50;79.20;;;;;;;;;;6270114;28;20607;-62
2022/03/17 05:22:34;;;;;;;226.57;82.28;;;;;;;;;;6272748;28;20097;-64
2022/03/17 05:25:36;;;;;;;233.65;79.50;;;;;;;;;;6276018;28;20049;-61
2022/03/17 05:28:36;;;;;;;243.70;83.65;;;;;;;;;;6275174;28;20064;-61
2022/03/17 05:31:37;;;;;;;249.70;88.10;;;;;;;;;;6274721;28;20087;-61
2022/03/17 05:34:38;;;;;;;250.27;91.18;;;;;;;;;;6286047;28;20577;-60
2022/03/17 05:37:42;;;;;;;239.00;85.28;;;;;;;;;;6272139;28;20041;-64
2022/03/17 05:40:43;;;;;;;224.60;82.10;;;;;;;;;;6272990;28;20044;-63
2022/03/17 05:43:43;;;;;;;232.38;83.55;;;;;;;;;;6271870;28;20488;-62
2022/03/17 05:46:44;;;;;;;219.65;82.15;;;;;;;;;;6271309;28;20076;-63
2022/03/17 05:49:47;;;;;;;225.85;81.60;;;;;;;;;;6277822;28;20440;-63
2022/03/17 05:52:48;;;;;;;242.50;86.53;;;;;;;;;;6286509;28;20109;-64
2022/03/17 05:55:49;;;;;;;255.07;86.63;;;;;;;;;;6287346;28;20044;-64
2022/03/17 05:58:50;;;;;;;254.55;86.70;;;;;;;;;;6287422;28;20071;-64
2022/03/17 06:01:50;;;;;;;244.60;87.38;;;;;;;;;;6270492;28;20047;-68
2022/03/17 06:04:51;;;;;;;233.43;84.63;;;;;;;;;;6284570;28;20147;-65
2022/03/17 06:07:53;;;;;;;224.70;80.40;;;;;;;;;;6293291;28;20045;-66
2022/03/17 06:10:54;;;;;;;;;;;;;;;;;;6284752;28;20053;-67
2022/03/17 06:13:56;;;;;;;239.38;79.63;;;;;;;;;;6285185;28;20015;-63
2022/03/17 06:16:56;;;;;;;223.68;77.60;;;;;;;;;;6268643;28;20078;-66
2022/03/17 06:19:57;;;;;;;226.52;77.03;;;;;;;;;;6268982;28;20057;-67
2022/03/17 06:23:01;;;;;;;226.65;78.78;;;;;;;;;;6277812;28;20427;-64
2022/03/17 06:26:01;;;;;;;217.45;80.95;;;;;;;;;;6277767;28;20045;-65
2022/03/17 06:29:02;;;;;;;205.50;76.35;;;;;;;;;;6274702;28;20098;-75
2022/03/17 06:32:04;;;;;;;230.88;86.63;;;;;;;;;;6265489;28;20167;-64
2022/03/17 06:35:05;;;;;;;247.60;83.15;;;;;;;;;;6272527;28;20491;-63
2022/03/17 06:38:07;;;;;;;234.57;83.10;;;;;;;;;;6269443;28;20069;-65
2022/03/17 06:41:08;;;;;;;249.13;85.87;;;;;;;;;;6271121;28;20476;-63
2022/03/17 06:44:08;;;;;;;226.23;82.43;;;;;;;;;;6268376;28;20041;-66
2022/03/17 06:47:09;;;;;;;225.95;80.18;;;;;;;;;;6276291;28;20116;-64
2022/03/17 06:50:11;;;;;;;216.73;81.32;;;;;;;;;;6276579;28;20124;-64
2022/03/17 06:53:12;;;;;;;227.48;77.22;;;;;;;;;;6271391;28;20110;-63
2022/03/17 06:56:13;;;;;;;198.63;76.65;;;;;;;;;;6271470;28;20052;-62
2022/03/17 06:59:14;;;;;;;210.90;75.68;;;;;;;;;;6274210;28;20449;-65
2022/03/17 07:02:15;;;;;;;202.10;75.05;;;;;;;;;;6270941;28;20048;-65
2022/03/17 07:05:16;;;;;;;207.98;77.97;;;;;;;;;;6269738;28;20052;-65
2022/03/17 07:08:16;;;;;;;213.98;77.07;;;;;;;;;;6275194;28;20053;-64
2022/03/17 07:11:18;;;;;;;198.05;72.05;;;;;;;;;;6271594;28;20056;-63
2022/03/17 07:14:19;;;;;;;196.20;70.90;;;;;;;;;;6275216;28;20041;-67
2022/03/17 07:17:21;;;;;;;196.68;70.78;;;;;;;;;;6275071;28;20103;-64
2022/03/17 07:20:23;;;;;;;184.05;66.97;;;;;;;;;;6271022;28;20080;-64
2022/03/17 07:23:24;;;;;;;182.30;64.20;;;;;;;;;;6273559;28;20045;-68
2022/03/17 07:26:27;;;;;;;188.20;67.22;;;;;;;;;;6269607;28;20498;-64
2022/03/17 07:29:31;;;;;;;;;;;;;;;;;;6272374;28;20038;-66
2022/03/17 07:32:31;;;;;;;171.32;58.58;;;;;;;;;;6276553;28;19966;-68
2022/03/17 07:35:33;;;;;;;168.32;60.83;;;;;;;;;;6273161;28;20044;-64
2022/03/17 07:38:33;;;;;;;180.57;62.40;;;;;;;;;;6276125;28;20139;-64
2022/03/17 07:41:34;;;;;;;161.43;59.85;;;;;;;;;;6266288;28;20045;-64
2022/03/17 07:44:37;;;;;;;171.57;57.67;;;;;;;;;;6275706;28;20041;-63
2022/03/17 07:47:48;;;;;;;154.90;54.33;;;;;;;;;;6273200;28;20090;-63
2022/03/17 07:50:50;;;;;;;159.05;55.10;;;;;;;;;;6273478;28;20548;-64
2022/03/17 07:53:50;;;;;;;145.37;52.03;;;;;;;;;;6270623;28;20045;-64
2022/03/17 07:56:51;;;;;;;135.00;48.40;;;;;;;;;;6266683;28;20300;-64
2022/03/17 07:59:53;;;;;;;114.73;44.77;;;;;;;;;;6281296;28;20129;-60
2022/03/17 08:02:54;;;;;;;122.50;43.53;;;;;;;;;;6268646;28;20792;-66
2022/03/17 08:05:56;;;;;;;112.95;43.53;;;;;;;;;;6271913;28;20755;-66
2022/03/17 08:08:56;;;;;;;117.70;43.15;;;;;;;;;;6275615;28;20049;-65
2022/03/17 08:11:57;;;;;;;119.60;45.00;;;;;;;;;;6270295;28;20049;-66
2022/03/17 08:14:58;;;;;;;120.20;45.22;;;;;;;;;;6273688;28;20765;-65
2022/03/17 08:17:59;;;;;;;125.82;43.97;;;;;;;;;;6269462;28;20040;-66
2022/03/17 08:21:00;;;;;;;118.70;43.25;;;;;;;;;;6266492;28;20061;-66
2022/03/17 08:24:01;;;;;;;108.88;42.58;;;;;;;;;;6274126;28;20044;-66
2022/03/17 08:27:02;;;;;;;126.25;44.72;;;;;;;;;;6275622;28;20423;-67
2022/03/17 08:30:03;;;;;;;113.20;43.22;;;;;;;;;;6271393;28;20060;-69
2022/03/17 08:33:04;;;;;;;97.20;38.90;;;;;;;;;;6268452;28;20049;-66
2022/03/17 08:36:08;;;;;;;97.65;36.17;;;;;;;;;;6273912;28;20075;-66
2022/03/17 08:39:08;;;;;;;89.30;34.08;;;;;;;;;;6264690;28;20052;-66
2022/03/17 08:42:09;;;;;;;87.80;34.53;;;;;;;;;;6264070;28;20482;-69
2022/03/17 08:51:55;;;;;;;76.05;29.80;;;;;;;;;;6265169;28;20123;-66
2022/03/17 08:54:56;;;;;;;57.47;21.40;;;;;;;;;;6278663;28;20052;-66
2022/03/17 08:57:57;;;;;;;64.07;24.17;;;;;;;;;;6275753;28;20044;-67
2022/03/17 09:01:00;;;;;;;58.33;23.55;;;;;;;;;;6272392;28;20143;-66
2022/03/17 09:04:01;;;;;;;67.53;25.60;;;;;;;;;;6265155;28;20535;-68
2022/03/17 09:07:02;;;;;;;89.75;28.67;;;;;;;;;;6272806;28;20040;-67
2022/03/17 09:10:05;;;;;;;57.13;23.48;;;;;;;;;;6274557;28;20061;-69
2022/03/17 09:13:07;;;;;;;64.22;25.45;;;;;;;;;;6275828;28;20053;-67
2022/03/17 09:16:08;;;;;;;72.32;27.10;;;;;;;;;;6272765;28;20049;-67
2022/03/17 09:19:09;;;;;;;60.72;22.90;;;;;;;;;;6265062;28;20427;-69
2022/03/17 09:22:09;;;;;;;66.38;24.90;;;;;;;;;;6268389;28;20053;-66
2022/03/17 09:25:11;;;;;;;56.85;23.20;;;;;;;;;;6270307;28;20045;-65
2022/03/17 09:28:13;;;;;;;62.50;23.90;;;;;;;;;;6279816;28;20132;-67
2022/03/17 09:31:14;;;;;;;51.97;22.88;;;;;;;;;;6282584;28;20052;-66
2022/03/17 09:34:15;;;;;;;53.53;21.35;;;;;;;;;;6276706;28;20064;-67
2022/03/17 09:37:17;;;;;;;57.15;22.20;;;;;;;;;;6281197;28;20559;-66
2022/03/17 09:40:18;;;;;;;51.03;19.10;;;;;;;;;;6275196;28;20049;-66
2022/03/17 09:43:19;;;;;;;49.05;19.20;;;;;;;;;;6280130;28;20182;-66
2022/03/17 09:46:23;;;;;;;57.00;21.45;;;;;;;;;;6274570;28;20052;-65
2022/03/17 09:49:25;;;;;;;47.20;20.40;;;;;;;;;;6277685;28;20127;-66
2022/03/17 09:52:27;;;;;;;59.58;21.80;;;;;;;;;;6278449;28;20061;-68
2022/03/17 09:55:28;;;;;;;;;;;;;;;;;;6271538;28;20045;-66
2022/03/17 09:58:28;;;;;;;49.40;19.35;;;;;;;;;;6281395;28;19928;-69
2022/03/17 10:01:29;;;;;;;50.15;19.27;;;;;;;;;;6274820;28;20389;-67
2022/03/17 10:04:36;;;;;;;57.67;21.38;;;;;;;;;;6273477;28;20607;-67
2022/03/17 10:07:38;;;;;;;55.92;24.08;;;;;;;;;;6278104;28;20071;-66
2022/03/17 10:10:40;;;;;;;61.70;24.20;;;;;;;;;;6277371;28;20053;-66
2022/03/17 10:13:46;;;;;;;54.08;23.60;;;;;;;;;;6292725;28;20551;-67
2022/03/17 10:16:48;;;;;;;51.42;21.08;;;;;;;;;;6277021;28;20088;-66
2022/03/17 10:19:48;;;;;;;61.35;25.40;;;;;;;;;;6270438;28;20083;-66
2022/03/17 10:23:01;;;;;;;70.60;29.20;;;;;;;;;;6268359;28;20049;-66
2022/03/17 10:26:01;;;;;;;57.78;21.75;;;;;;;;;;6269461;28;20048;-66
2022/03/17 10:29:04;;;;;;;57.92;21.25;;;;;;;;;;6270741;28;20186;-67
2022/03/17 10:32:07;;;;;;;56.92;20.25;;;;;;;;;;6270369;28;20135;-66
2022/03/17 10:35:08;;;;;;;57.03;22.75;;;;;;;;;;6269261;28;20388;-67
2022/03/17 10:38:14;;;;;;;52.90;21.23;;;;;;;;;;6270660;28;20084;-65
2022/03/17 10:41:16;;;;;;;56.60;22.52;;;;;;;;;;6269204;28;20458;-67
2022/03/17 10:44:18;;;;;;;57.05;21.90;;;;;;;;;;6271153;28;20045;-69
2022/03/17 10:47:23;;;;;;;;;;;;;;;;;;6275185;28;20098;-66
2022/03/17 10:50:25;;;;;;;61.22;24.00;;;;;;;;;;6284191;28;19927;-66
2022/03/17 10:53:27;;;;;;;64.82;23.50;;;;;;;;;;6275022;28;20045;-68
2022/03/17 10:56:28;;;;;;;51.72;23.30;;;;;;;;;;6274278;28;20506;-66
2022/03/17 10:59:47;;;;;;;59.35;25.25;;;;;;;;;;6277307;28;20077;-66
2022/03/17 11:02:57;;;;;;;64.07;24.98;;;;;;;;;;6267331;28;20407;-68
2022/03/17 11:05:58;;;;;;;68.78;23.75;;;;;;;;;;6273226;28;20044;-67
2022/03/17 11:09:02;;;;;;;57.00;22.70;;;;;;;;;;6274872;28;20131;-66
2022/03/17 11:12:04;;;;;;;57.90;24.67;;;;;;;;;;6278025;28;20048;-66
2022/03/17 11:15:05;;;;;;;58.40;25.90;;;;;;;;;;6277133;28;20061;-67
2022/03/17 11:18:10;;;;;;;58.95;24.80;;;;;;;;;;6267790;28;20048;-66
2022/03/17 11:21:16;;;;;;;61.60;25.08;;;;;;;;;;6267353;28;20049;-66
2022/03/17 11:24:22;;;;;;;71.20;26.25;;;;;;;;;;6268313;28;20041;-66
2022/03/17 11:27:24;;;;;;;67.25;26.77;;;;;;;;;;6267271;28;20429;-67
2022/03/17 11:30:30;;;;;;;60.80;25.55;;;;;;;;;;6267108;28;20075;-66
2022/03/17 11:33:44;;;;;;;67.55;26.95;;;;;;;;;;6267738;28;20154;-66
2022/03/17 11:37:16;;;;;;;78.72;30.17;;;;;;;;;;6266586;28;20566;-67
2022/03/17 11:40:19;;;;;;;65.43;27.58;;;;;;;;;;6266347;28;20040;-67
2022/03/17 11:43:22;;;;;;;59.38;26.55;;;;;;;;;;6266611;28;20044;-67
2022/03/17 11:46:24;;;;;;;;;;;;;;;;;;6267282;28;20045;-69
2022/03/17 11:49:27;;;;;;;60.38;25.70;;;;;;;;;;6281107;28;20307;-67
2022/03/17 11:52:28;;;;;;;67.32;26.73;;;;;;;;;;6280777;28;20079;-66
2022/03/17 11:55:41;;;;;;;67.22;26.52;;;;;;;;;;6270650;28;20040;-66
2022/03/17 11:58:43;;;;;;;68.78;26.80;;;;;;;;;;6271751;28;20049;-66
2022/03/17 12:01:46;;;;;;;70.15;28.25;;;;;;;;;;6275717;28;20072;-69
2022/03/17 12:04:51;;;;;;;68.80;28.30;;;;;;;;;;6269733;28;20041;-68
2022/03/17 12:08:00;;;;;;;69.63;28.55;;;;;;;;;;6274662;28;20060;-67
2022/03/17 12:11:13;;;;;;;67.18;26.23;;;;;;;;;;6264773;28;20095;-67
2022/03/17 12:14:24;;;;;;;64.47;26.98;;;;;;;;;;6270426;28;20100;-67
2022/03/17 12:17:27;;;;;;;68.85;26.80;;;;;;;;;;6277836;28;20163;-68
2022/03/17 12:20:28;;;;;;;75.22;27.90;;;;;;;;;;6276180;28;20075;-67
2022/03/17 12:23:49;;;;;;;67.22;27.50;;;;;;;;;;6272373;28;20045;-67
2022/03/17 12:27:03;;;;;;;61.25;25.85;;;;;;;;;;6276316;28;20048;-66
2022/03/17 12:30:11;;;;;;;61.00;23.20;;;;;;;;;;6278648;28;20060;-68
2022/03/17 12:33:12;;;;;;;66.40;25.35;;;;;;;;;;6274960;28;20049;-67
2022/03/17 12:36:15;;;;;;;57.58;22.77;;;;;;;;;;6266973;28;20408;-69
2022/03/17 12:39:16;;;;;;;57.10;21.40;;;;;;;;;;6264819;28;20494;-66
2022/03/17 12:42:23;;;;;;;53.67;22.73;;;;;;;;;;6266354;28;20080;-67
2022/03/17 12:45:25;;;;;;;50.30;20.05;;;;;;;;;;6274417;28;20468;-66
2022/03/17 12:48:28;;;;;;;54.35;22.10;;;;;;;;;;6276244;28;20060;-67
2022/03/17 12:51:28;;;;;;;51.13;21.23;;;;;;;;;;6272192;28;20075;-67
2022/03/17 12:54:29;;;;;;;52.35;19.75;;;;;;;;;;6271703;28;20067;-66
2022/03/17 12:57:33;;;;;;;48.03;20.48;;;;;;;;;;6268755;28;20079;-68
2022/03/17 13:00:42;;;;;;;47.95;20.33;;;;;;;;;;6275913;28;20129;-66
2022/03/17 13:03:44;;;;;;;49.92;19.13;;;;;;;;;;6278392;28;20049;-67
2022/03/17 13:06:54;;;;;;;50.42;19.88;;;;;;;;;;6280302;28;20097;-68
2022/03/17 13:09:54;;;;;;;52.28;20.35;;;;;;;;;;6283296;28;20068;-68
2022/03/17 13:16:16;;;;;;;54.10;20.48;;;;;;;;;;6280414;28;20033;-67
2022/03/17 13:19:17;;;;;;;54.22;21.60;;;;;;;;;;6274774;28;20099;-67
2022/03/17 13:22:26;;;;;;;52.15;20.40;;;;;;;;;;6279344;28;20135;-67
2022/03/17 13:25:29;;;;;;;49.85;19.83;;;;;;;;;;6274925;28;20128;-68
2022/03/17 13:28:30;;;;;;;49.95;20.33;;;;;;;;;;6279297;28;20076;-67
2022/03/17 13:31:41;;;;;;;60.40;21.95;;;;;;;;;;6274978;28;20044;-67
2022/03/17 13:34:42;;;;;;;52.85;20.75;;;;;;;;;;6281429;28;20138;-67
2022/03/17 13:37:44;;;;;;;58.40;21.93;;;;;;;;;;6279869;28;20493;-68
2022/03/17 13:40:56;;;;;;;47.88;20.45;;;;;;;;;;6279831;28;20601;-68
2022/03/17 13:44:08;;;;;;;47.63;19.38;;;;;;;;;;6277420;28;20111;-67
2022/03/17 13:47:15;;;;;;;59.75;23.50;;;;;;;;;;6276202;28;20053;-67
2022/03/17 13:50:22;;;;;;;61.38;21.95;;;;;;;;;;6281417;28;20063;-67
2022/03/17 13:53:30;;;;;;;56.50;20.65;;;;;;;;;;6275820;28;20799;-67
2022/03/17 13:56:31;;;;;;;54.17;21.45;;;;;;;;;;6279310;28;20040;-67
2022/03/17 13:59:32;;;;;;;57.08;21.25;;;;;;;;;;6278975;28;20095;-66
2022/03/17 14:02:33;;;;;;;53.03;19.75;;;;;;;;;;6279399;28;20623;-67
2022/03/17 14:05:34;;;;;;;50.03;21.37;;;;;;;;;;6278276;28;20601;-66
2022/03/17 14:08:36;;;;;;;57.33;20.42;;;;;;;;;;6277740;28;20051;-66
2022/03/17 14:11:38;;;;;;;42.85;17.85;;;;;;;;;;6281761;28;20048;-67
2022/03/17 14:14:38;;;;;;;51.85;19.40;;;;;;;;;;6291971;28;20128;-69
2022/03/17 14:17:39;;;;;;;57.95;22.25;;;;;;;;;;6295329;28;20048;-68
2022/03/17 14:20:39;;;;;;;53.58;21.85;;;;;;;;;;6283279;28;20140;-69
2022/03/17 14:27:02;;;;;;;58.60;20.17;;;;;;;;;;6277445;28;20139;-66
2022/03/17 14:30:04;;;;;;;53.72;20.85;;;;;;;;;;6277093;28;20059;-67
2022/03/17 14:33:04;;;;;;;66.50;26.08;;;;;;;;;;6276611;28;20547;-68
2022/03/17 14:36:06;;;;;;;61.58;21.60;;;;;;;;;;6276300;28;20061;-67
2022/03/17 14:39:08;;;;;;;69.35;23.67;;;;;;;;;;6272051;28;20053;-67
2022/03/17 14:42:13;;;;;;;54.17;20.95;;;;;;;;;;6278426;28;20407;-66
2022/03/17 14:45:13;;;;;;;45.45;18.70;;;;;;;;;;6272236;28;20060;-68
2022/03/17 14:48:14;;;;;;;48.85;19.08;;;;;;;;;;6278364;28;20182;-67
2022/03/17 14:51:14;;;;;;;58.05;21.55;;;;;;;;;;6275867;28;20175;-67
2022/03/17 14:54:15;;;;;;;62.08;22.27;;;;;;;;;;6275650;28;20041;-66
2022/03/17 14:57:16;;;;;;;69.32;25.35;;;;;;;;;;6282885;28;20079;-67
2022/03/17 15:00:17;;;;;;;63.53;25.15;;;;;;;;;;6274576;28;20170;-66
2022/03/17 15:03:17;;;;;;;61.17;25.95;;;;;;;;;;6277136;28;20415;-66
2022/03/17 15:06:24;;;;;;;57.35;22.60;;;;;;;;;;6264938;28;20045;-66
2022/03/17 15:09:25;;;;;;;59.40;24.67;;;;;;;;;;6266670;28;20048;-68
2022/03/17 15:12:26;;;;;;;64.43;25.90;;;;;;;;;;6267266;28;20049;-68
2022/03/17 15:15:27;;;;;;;66.93;23.75;;;;;;;;;;6268754;28;20037;-69
2022/03/17 15:18:28;;;;;;;59.23;22.47;;;;;;;;;;6268173;28;20045;-68
2022/03/17 15:21:29;;;;;;;65.93;24.08;;;;;;;;;;6267674;28;20523;-66
2022/03/17 15:24:30;;;;;;;67.85;25.02;;;;;;;;;;6266136;28;20040;-66
2022/03/17 15:30:50;;;;;;;41.10;18.52;;;;;;;;;;6274466;28;20067;-67
2022/03/17 15:33:51;;;;;;;52.33;17.90;;;;;;;;;;6274362;28;20159;-71
2022/03/17 15:36:52;;;;;;;49.63;18.98;;;;;;;;;;6275164;28;20632;-63
2022/03/17 15:39:53;;;;;;;56.53;21.15;;;;;;;;;;6281255;28;20218;-70
2022/03/17 15:42:53;;;;;;;51.30;21.42;;;;;;;;;;6277875;28;20056;-73
2022/03/17 15:45:54;;;;;;;56.97;20.55;;;;;;;;;;6270570;28;20072;-71
2022/03/17 15:48:55;;;;;;;51.45;20.08;;;;;;;;;;6270825;28;20048;-65
2022/03/17 15:51:56;;;;;;;54.58;20.90;;;;;;;;;;6270177;28;20037;-68
2022/03/17 15:54:59;;;;;;;63.47;24.13;;;;;;;;;;6263287;28;20045;-64
2022/03/17 15:57:59;;;;;;;;;;;;;;;;;;6277370;28;20055;-65
2022/03/17 16:01:00;;;;;;;83.55;28.77;;;;;;;;;;6274897;28;20323;-68
2022/03/17 16:04:01;;;;;;;58.45;21.98;;;;;;;;;;6283326;28;20074;-65
2022/03/17 16:07:02;;;;;;;50.97;20.60;;;;;;;;;;6287513;28;20534;-64
2022/03/17 16:16:42;;;;;;;82.35;26.20;;;;;;;;;;6289774;28;20076;-66
2022/03/17 16:19:44;;;;;;;88.88;24.83;;;;;;;;;;6283884;28;20527;-65
2022/03/17 16:22:46;;;;;;;87.80;27.65;;;;;;;;;;6282435;28;20059;-64
2022/03/17 16:25:48;;;;;;;67.40;22.23;;;;;;;;;;6288591;28;20135;-64
2022/03/17 16:28:49;;;;;;;70.63;22.60;;;;;;;;;;6275001;28;20045;-67
2022/03/17 16:31:49;;;;;;;73.72;25.15;;;;;;;;;;6277666;28;20041;-66
2022/03/17 16:34:51;;;;;;;63.58;23.42;;;;;;;;;;6280190;28;20530;-66
2022/03/17 16:37:52;;;;;;;67.47;23.60;;;;;;;;;;6280785;28;20135;-64
2022/03/17 16:40:52;;;;;;;55.95;20.67;;;;;;;;;;6286378;28;20048;-65
2022/03/17 16:43:53;;;;;;;61.83;20.95;;;;;;;;;;6274848;28;20048;-63
2022/03/17 16:46:56;;;;;;;64.45;22.25;;;;;;;;;;6275122;28;20048;-65
2022/03/17 16:49:57;;;;;;;65.25;23.45;;;;;;;;;;6272469;28;20139;-66
2022/03/17 16:52:59;;;;;;;72.82;23.55;;;;;;;;;;6274077;28;20047;-65
2022/03/17 16:56:00;;;;;;;67.97;22.42;;;;;;;;;;6274789;28;20488;-63
2022/03/17 16:59:00;;;;;;;76.45;25.92;;;;;;;;;;6273815;28;20154;-65
2022/03/17 17:02:01;;;;;;;76.97;25.63;;;;;;;;;;6283668;28;20546;-65
2022/03/17 17:05:02;;;;;;;75.20;24.77;;;;;;;;;;6279134;28;20052;-66
2022/03/17 17:08:04;;;;;;;73.07;25.70;;;;;;;;;;6279355;28;20125;-62
2022/03/17 17:11:07;;;;;;;69.47;24.45;;;;;;;;;;6280168;28;20041;-67
2022/03/17 17:14:08;;;;;;;64.45;22.88;;;;;;;;;;6276670;28;20527;-66
2022/03/17 17:17:12;;;;;;;66.70;22.65;;;;;;;;;;6274365;28;20048;-70
2022/03/17 17:20:13;;;;;;;68.30;24.17;;;;;;;;;;6278577;28;20057;-74
2022/03/17 17:33:12;;;;;;;76.70;28.23;;;;;;;;;;6276173;28;20412;-64
2022/03/17 17:36:13;;;;;;;79.03;29.50;;;;;;;;;;6272558;28;20546;-68
2022/03/17 17:39:16;;;;;;;76.25;27.48;;;;;;;;;;6275581;28;20087;-65
2022/03/17 17:42:16;;;;;;;70.78;23.92;;;;;;;;;;6278139;28;20058;-63
2022/03/17 17:45:18;;;;;;;64.80;23.73;;;;;;;;;;6281234;28;20053;-66
2022/03/17 17:48:19;;;;;;;90.00;35.27;;;;;;;;;;6281525;28;20096;-66
2022/03/17 17:51:20;;;;;;;88.25;39.83;;;;;;;;;;6275382;28;20767;-66
2022/03/17 17:54:21;;;;;;;68.00;25.67;;;;;;;;;;6275837;28;20040;-66
2022/03/17 17:57:23;;;;;;;78.78;26.05;;;;;;;;;;6279179;28;20048;-62
2022/03/17 18:00:27;;;;;;;67.03;23.08;;;;;;;;;;6277450;28;20049;-71
2022/03/17 18:03:28;;;;;;;79.82;25.45;;;;;;;;;;6273365;28;20943;-63
2022/03/17 18:06:29;;;;;;;73.38;24.02;;;;;;;;;;6279408;28;20041;-66
2022/03/17 18:09:31;;;;;;;88.03;25.40;;;;;;;;;;6275182;28;20445;-68
2022/03/17 18:12:32;;;;;;;80.95;26.92;;;;;;;;;;6276125;28;20372;-68
2022/03/17 18:15:37;;;;;;;86.45;26.05;;;;;;;;;;6277658;28;20364;-71
2022/03/17 18:18:38;;;;;;;78.80;24.70;;;;;;;;;;6276898;28;20047;-70
2022/03/17 18:21:39;;;;;;;71.00;23.88;;;;;;;;;;6275714;28;21168;-74